sensor_id;sensor_type;location;lat;lon;timestamp;pressure;altitude;pressure_sealevel;temperature;humidity
54924;BME280;40825;52.270;20.984;2023-07-20T00:01:45;99805.43;;;18.05;60.22
54924;BME280;40825;52.270;20.984;2023-07-20T00:04:11;99804.30;;;18.03;59.83
54924;BME280;40825;52.270;20.984;2023-07-20T00:06:37;99804.84;;;18.03;60.04
54924;BME280;40825;52.270;20.984;2023-07-20T00:09:08;99803.17;;;18.03;60.19
54924;BME280;40825;52.270;20.984;2023-07-20T00:11:37;99801.85;;;18.04;60.13
54924;BME280;40825;52.270;20.984;2023-07-20T00:14:04;99798.15;;;18.03;60.75
54924;BME280;40825;52.270;20.984;2023-07-20T00:16:30;99795.55;;;18.01;60.42
54924;BME280;40825;52.270;20.984;2023-07-20T00:18:56;99793.75;;;18.00;60.04
54924;BME280;40825;52.270;20.984;2023-07-20T00:21:21;99800.98;;;18.00;60.53
54924;BME280;40825;52.270;20.984;2023-07-20T00:23:47;99807.41;;;18.00;60.56
54924;BME280;40825;52.270;20.984;2023-07-20T00:26:12;99816.56;;;18.03;60.49
54924;BME280;40825;52.270;20.984;2023-07-20T00:28:37;99819.83;;;18.04;60.61
54924;BME280;40825;52.270;20.984;2023-07-20T00:31:04;99814.77;;;18.04;60.79
54924;BME280;40825;52.270;20.984;2023-07-20T00:33:29;99813.45;;;18.03;60.53
54924;BME280;40825;52.270;20.984;2023-07-20T00:35:55;99811.08;;;18.03;60.60
54924;BME280;40825;52.270;20.984;2023-07-20T00:38:21;99802.93;;;18.04;61.05
54924;BME280;40825;52.270;20.984;2023-07-20T00:40:46;99795.95;;;18.03;60.83
54924;BME280;40825;52.270;20.984;2023-07-20T00:43:12;99800.02;;;18.04;61.28
54924;BME280;40825;52.270;20.984;2023-07-20T00:45:38;99803.11;;;18.02;60.96
54924;BME280;40825;52.270;20.984;2023-07-20T00:48:04;99801.04;;;18.00;61.03
54924;BME280;40825;52.270;20.984;2023-07-20T00:50:31;99798.45;;;18.00;61.02
54924;BME280;40825;52.270;20.984;2023-07-20T00:52:57;99793.36;;;17.98;61.23
54924;BME280;40825;52.270;20.984;2023-07-20T00:55:24;99792.16;;;17.97;61.48
54924;BME280;40825;52.270;20.984;2023-07-20T00:57:50;99795.27;;;17.94;61.42
54924;BME280;40825;52.270;20.984;2023-07-20T01:00:17;99792.00;;;17.92;61.46
54924;BME280;40825;52.270;20.984;2023-07-20T01:02:43;99794.30;;;17.90;61.63
54924;BME280;40825;52.270;20.984;2023-07-20T01:05:09;99793.90;;;17.87;61.40
54924;BME280;40825;52.270;20.984;2023-07-20T01:08:00;99795.33;;;17.85;61.46
54924;BME280;40825;52.270;20.984;2023-07-20T01:10:37;99798.80;;;17.81;61.42
54924;BME280;40825;52.270;20.984;2023-07-20T01:13:06;99798.17;;;17.78;61.57
54924;BME280;40825;52.270;20.984;2023-07-20T01:15:34;99794.75;;;17.76;61.51
54924;BME280;40825;52.270;20.984;2023-07-20T01:17:59;99794.09;;;17.74;61.54
54924;BME280;40825;52.270;20.984;2023-07-20T01:20:28;99793.10;;;17.72;61.90
54924;BME280;40825;52.270;20.984;2023-07-20T01:28:44;99789.19;;;17.65;62.46
54924;BME280;40825;52.270;20.984;2023-07-20T01:31:23;99798.71;;;17.62;62.57
54924;BME280;40825;52.270;20.984;2023-07-20T01:33:50;99800.41;;;17.60;62.59
54924;BME280;40825;52.270;20.984;2023-07-20T01:36:18;99796.45;;;17.58;62.58
54924;BME280;40825;52.270;20.984;2023-07-20T01:38:45;99794.22;;;17.56;62.57
54924;BME280;40825;52.270;20.984;2023-07-20T01:41:11;99793.52;;;17.55;62.57
54924;BME280;40825;52.270;20.984;2023-07-20T01:43:37;99789.43;;;17.54;62.70
54924;BME280;40825;52.270;20.984;2023-07-20T01:46:03;99791.38;;;17.53;62.89
54924;BME280;40825;52.270;20.984;2023-07-20T01:48:28;99791.41;;;17.51;62.97
54924;BME280;40825;52.270;20.984;2023-07-20T01:50:53;99791.35;;;17.51;62.91
54924;BME280;40825;52.270;20.984;2023-07-20T01:53:20;99802.91;;;17.52;62.95
54924;BME280;40825;52.270;20.984;2023-07-20T01:55:46;99802.11;;;17.52;63.38
54924;BME280;40825;52.270;20.984;2023-07-20T01:58:11;99798.11;;;17.52;63.02
54924;BME280;40825;52.270;20.984;2023-07-20T02:00:37;99802.04;;;17.55;63.02
54924;BME280;40825;52.270;20.984;2023-07-20T02:03:03;99798.64;;;17.55;62.91
54924;BME280;40825;52.270;20.984;2023-07-20T02:05:29;99795.63;;;17.56;63.40
54924;BME280;40825;52.270;20.984;2023-07-20T02:07:54;99793.44;;;17.59;63.32
54924;BME280;40825;52.270;20.984;2023-07-20T02:10:20;99805.18;;;17.61;63.27
54924;BME280;40825;52.270;20.984;2023-07-20T02:12:46;99803.27;;;17.65;63.24
54924;BME280;40825;52.270;20.984;2023-07-20T02:15:11;99806.81;;;17.67;63.49
54924;BME280;40825;52.270;20.984;2023-07-20T02:17:39;99803.13;;;17.70;63.38
54924;BME280;40825;52.270;20.984;2023-07-20T02:20:07;99796.48;;;17.71;63.33
54924;BME280;40825;52.270;20.984;2023-07-20T02:22:38;99798.54;;;17.71;63.65
54924;BME280;40825;52.270;20.984;2023-07-20T02:25:05;99802.27;;;17.71;63.59
54924;BME280;40825;52.270;20.984;2023-07-20T02:27:30;99806.92;;;17.72;63.86
54924;BME280;40825;52.270;20.984;2023-07-20T02:29:56;99808.45;;;17.74;63.70
54924;BME280;40825;52.270;20.984;2023-07-20T02:32:22;99802.73;;;17.75;63.67
54924;BME280;40825;52.270;20.984;2023-07-20T02:34:47;99802.46;;;17.74;63.37
54924;BME280;40825;52.270;20.984;2023-07-20T02:37:13;99800.52;;;17.74;63.49
54924;BME280;40825;52.270;20.984;2023-07-20T02:39:39;99793.60;;;17.74;63.56
54924;BME280;40825;52.270;20.984;2023-07-20T02:42:05;99794.70;;;17.70;63.65
54924;BME280;40825;52.270;20.984;2023-07-20T02:44:31;99787.42;;;17.67;63.85
54924;BME280;40825;52.270;20.984;2023-07-20T02:46:57;99789.31;;;17.67;63.97
54924;BME280;40825;52.270;20.984;2023-07-20T02:49:22;99792.55;;;17.66;64.02
54924;BME280;40825;52.270;20.984;2023-07-20T02:51:48;99793.52;;;17.66;63.98
54924;BME280;40825;52.270;20.984;2023-07-20T02:54:13;99793.57;;;17.66;64.06
54924;BME280;40825;52.270;20.984;2023-07-20T02:56:38;99797.40;;;17.66;64.14
54924;BME280;40825;52.270;20.984;2023-07-20T02:59:04;99798.48;;;17.66;64.27
54924;BME280;40825;52.270;20.984;2023-07-20T03:01:29;99796.36;;;17.65;64.33
54924;BME280;40825;52.270;20.984;2023-07-20T03:03:55;99792.31;;;17.64;64.61
54924;BME280;40825;52.270;20.984;2023-07-20T03:06:21;99796.55;;;17.61;64.45
54924;BME280;40825;52.270;20.984;2023-07-20T03:08:47;99797.39;;;17.60;64.31
54924;BME280;40825;52.270;20.984;2023-07-20T03:11:14;99801.61;;;17.61;64.26
54924;BME280;40825;52.270;20.984;2023-07-20T03:13:41;99807.39;;;17.61;64.34
54924;BME280;40825;52.270;20.984;2023-07-20T03:16:08;99803.64;;;17.59;64.61
54924;BME280;40825;52.270;20.984;2023-07-20T03:18:39;99801.83;;;17.56;64.60
54924;BME280;40825;52.270;20.984;2023-07-20T03:21:07;99799.13;;;17.56;64.66
54924;BME280;40825;52.270;20.984;2023-07-20T03:23:33;99810.54;;;17.56;64.67
54924;BME280;40825;52.270;20.984;2023-07-20T03:25:59;99814.66;;;17.54;65.16
54924;BME280;40825;52.270;20.984;2023-07-20T03:28:25;99819.55;;;17.53;65.05
54924;BME280;40825;52.270;20.984;2023-07-20T03:30:57;99821.04;;;17.51;65.48
54924;BME280;40825;52.270;20.984;2023-07-20T03:33:28;99822.21;;;17.50;65.29
54924;BME280;40825;52.270;20.984;2023-07-20T03:35:55;99825.59;;;17.48;65.53
54924;BME280;40825;52.270;20.984;2023-07-20T03:38:21;99820.33;;;17.44;67.31
54924;BME280;40825;52.270;20.984;2023-07-20T03:40:51;99822.70;;;17.37;67.21
54924;BME280;40825;52.270;20.984;2023-07-20T03:43:17;99836.66;;;17.32;66.91
54924;BME280;40825;52.270;20.984;2023-07-20T03:45:43;99846.48;;;17.22;66.61
54924;BME280;40825;52.270;20.984;2023-07-20T03:48:08;99859.30;;;17.10;67.62
54924;BME280;40825;52.270;20.984;2023-07-20T03:50:34;99870.34;;;17.02;67.93
54924;BME280;40825;52.270;20.984;2023-07-20T03:53:00;99881.73;;;16.97;68.84
54924;BME280;40825;52.270;20.984;2023-07-20T03:55:28;99881.23;;;16.91;68.58
54924;BME280;40825;52.270;20.984;2023-07-20T03:57:58;99877.91;;;16.86;69.63
54924;BME280;40825;52.270;20.984;2023-07-20T04:00:48;99876.92;;;16.81;68.72
54924;BME280;40825;52.270;20.984;2023-07-20T04:03:35;99876.80;;;16.74;68.64
54924;BME280;40825;52.270;20.984;2023-07-20T04:06:22;99870.16;;;16.64;69.03
54924;BME280;40825;52.270;20.984;2023-07-20T04:08:48;99867.92;;;16.61;69.51
54924;BME280;40825;52.270;20.984;2023-07-20T04:11:13;99871.83;;;16.60;70.24
54924;BME280;40825;52.270;20.984;2023-07-20T04:13:38;99874.40;;;16.49;70.37
54924;BME280;40825;52.270;20.984;2023-07-20T04:16:04;99873.72;;;16.44;71.31
54924;BME280;40825;52.270;20.984;2023-07-20T04:18:30;99881.98;;;16.42;71.30
54924;BME280;40825;52.270;20.984;2023-07-20T04:20:55;99881.13;;;16.36;72.22
54924;BME280;40825;52.270;20.984;2023-07-20T04:23:21;99882.98;;;16.25;72.63
54924;BME280;40825;52.270;20.984;2023-07-20T04:25:46;99886.04;;;16.21;73.04
54924;BME280;40825;52.270;20.984;2023-07-20T04:28:12;99892.23;;;16.21;72.58
54924;BME280;40825;52.270;20.984;2023-07-20T04:30:38;99892.13;;;16.18;72.71
54924;BME280;40825;52.270;20.984;2023-07-20T04:33:06;99895.70;;;16.16;72.96
54924;BME280;40825;52.270;20.984;2023-07-20T04:43:33;99918.23;;;16.26;79.18
54924;BME280;40825;52.270;20.984;2023-07-20T04:45:59;99924.24;;;16.25;79.19
54924;BME280;40825;52.270;20.984;2023-07-20T04:48:24;99927.79;;;16.25;78.72
54924;BME280;40825;52.270;20.984;2023-07-20T04:50:50;99925.21;;;16.22;77.89
54924;BME280;40825;52.270;20.984;2023-07-20T04:53:15;99926.65;;;16.24;76.87
54924;BME280;40825;52.270;20.984;2023-07-20T04:55:47;99932.21;;;16.28;76.46
54924;BME280;40825;52.270;20.984;2023-07-20T05:30:39;99941.89;;;16.65;77.14
54924;BME280;40825;52.270;20.984;2023-07-20T05:33:11;99939.64;;;16.61;77.94
54924;BME280;40825;52.270;20.984;2023-07-20T05:35:37;99931.15;;;16.59;77.53
54924;BME280;40825;52.270;20.984;2023-07-20T05:38:03;99933.71;;;16.61;77.05
54924;BME280;40825;52.270;20.984;2023-07-20T05:40:30;99929.73;;;16.64;77.31
54924;BME280;40825;52.270;20.984;2023-07-20T05:42:56;99924.32;;;16.63;77.10
54924;BME280;40825;52.270;20.984;2023-07-20T05:45:22;99921.36;;;16.60;76.81
54924;BME280;40825;52.270;20.984;2023-07-20T05:47:48;99923.02;;;16.56;77.35
54924;BME280;40825;52.270;20.984;2023-07-20T05:50:14;99923.40;;;16.56;77.35
54924;BME280;40825;52.270;20.984;2023-07-20T05:52:40;99920.84;;;16.54;77.97
54924;BME280;40825;52.270;20.984;2023-07-20T05:55:06;99921.51;;;16.56;78.66
54924;BME280;40825;52.270;20.984;2023-07-20T05:57:33;99922.66;;;16.60;78.75
54924;BME280;40825;52.270;20.984;2023-07-20T05:59:58;99924.83;;;16.64;77.66
54924;BME280;40825;52.270;20.984;2023-07-20T06:02:24;99923.36;;;16.69;78.27
54924;BME280;40825;52.270;20.984;2023-07-20T06:05:03;99924.12;;;16.73;78.01
54924;BME280;40825;52.270;20.984;2023-07-20T06:07:37;99924.95;;;16.75;77.70
54924;BME280;40825;52.270;20.984;2023-07-20T06:10:05;99925.31;;;16.74;77.74
54924;BME280;40825;52.270;20.984;2023-07-20T06:12:31;99922.86;;;16.72;78.44
54924;BME280;40825;52.270;20.984;2023-07-20T06:15:01;99922.69;;;16.74;78.44
54924;BME280;40825;52.270;20.984;2023-07-20T06:17:27;99920.85;;;16.77;78.34
54924;BME280;40825;52.270;20.984;2023-07-20T06:19:53;99918.48;;;16.81;78.59
54924;BME280;40825;52.270;20.984;2023-07-20T06:22:18;99913.23;;;16.83;78.68
54924;BME280;40825;52.270;20.984;2023-07-20T06:24:47;99915.34;;;16.90;78.74
54924;BME280;40825;52.270;20.984;2023-07-20T06:27:12;99915.50;;;17.00;78.85
54924;BME280;40825;52.270;20.984;2023-07-20T06:29:38;99917.98;;;17.09;78.91
54924;BME280;40825;52.270;20.984;2023-07-20T06:32:08;99919.15;;;17.15;78.93
54924;BME280;40825;52.270;20.984;2023-07-20T06:34:34;99916.55;;;17.23;78.57
54924;BME280;40825;52.270;20.984;2023-07-20T06:37:04;99913.64;;;17.26;79.63
54924;BME280;40825;52.270;20.984;2023-07-20T06:39:30;99912.68;;;17.28;79.28
54924;BME280;40825;52.270;20.984;2023-07-20T06:41:56;99910.47;;;17.30;78.91
54924;BME280;40825;52.270;20.984;2023-07-20T06:44:21;99908.26;;;17.35;78.86
54924;BME280;40825;52.270;20.984;2023-07-20T06:46:47;99907.59;;;17.41;78.60
54924;BME280;40825;52.270;20.984;2023-07-20T06:49:25;99909.45;;;17.43;78.46
54924;BME280;40825;52.270;20.984;2023-07-20T06:51:51;99910.73;;;17.46;79.06
54924;BME280;40825;52.270;20.984;2023-07-20T06:54:17;99910.85;;;17.47;79.52
54924;BME280;40825;52.270;20.984;2023-07-20T06:56:43;99915.70;;;17.46;79.36
54924;BME280;40825;52.270;20.984;2023-07-20T06:59:08;99909.27;;;17.42;79.13
54924;BME280;40825;52.270;20.984;2023-07-20T07:01:34;99905.50;;;17.42;78.91
54924;BME280;40825;52.270;20.984;2023-07-20T07:03:59;99906.23;;;17.44;79.05
54924;BME280;40825;52.270;20.984;2023-07-20T07:06:25;99909.83;;;17.48;79.66
54924;BME280;40825;52.270;20.984;2023-07-20T07:08:53;99910.50;;;17.49;79.10
54924;BME280;40825;52.270;20.984;2023-07-20T07:11:20;99908.26;;;17.51;78.76
54924;BME280;40825;52.270;20.984;2023-07-20T07:13:46;99903.45;;;17.52;78.82
54924;BME280;40825;52.270;20.984;2023-07-20T07:16:14;99909.29;;;17.51;78.73
54924;BME280;40825;52.270;20.984;2023-07-20T07:18:47;99912.90;;;17.51;79.08
54924;BME280;40825;52.270;20.984;2023-07-20T07:21:13;99915.48;;;17.51;79.16
54924;BME280;40825;52.270;20.984;2023-07-20T07:23:39;99916.25;;;17.47;79.37
54924;BME280;40825;52.270;20.984;2023-07-20T07:26:05;99918.69;;;17.44;79.13
54924;BME280;40825;52.270;20.984;2023-07-20T07:28:31;99918.77;;;17.41;78.65
54924;BME280;40825;52.270;20.984;2023-07-20T07:30:57;99920.96;;;17.37;79.10
54924;BME280;40825;52.270;20.984;2023-07-20T07:33:23;99923.34;;;17.33;79.82
54924;BME280;40825;52.270;20.984;2023-07-20T07:35:50;99924.76;;;17.30;79.13
54924;BME280;40825;52.270;20.984;2023-07-20T07:38:19;99929.58;;;17.28;79.09
54924;BME280;40825;52.270;20.984;2023-07-20T07:40:45;99935.60;;;17.26;79.49
54924;BME280;40825;52.270;20.984;2023-07-20T07:43:11;99941.67;;;17.25;79.07
54924;BME280;40825;52.270;20.984;2023-07-20T07:45:39;99948.34;;;17.23;79.11
54924;BME280;40825;52.270;20.984;2023-07-20T07:48:06;99956.33;;;17.20;79.04
54924;BME280;40825;52.270;20.984;2023-07-20T07:50:33;99962.71;;;17.17;79.33
54924;BME280;40825;52.270;20.984;2023-07-20T07:52:59;99960.60;;;17.13;79.73
54924;BME280;40825;52.270;20.984;2023-07-20T07:55:25;99962.82;;;17.06;80.02
54924;BME280;40825;52.270;20.984;2023-07-20T07:57:52;99966.68;;;17.02;79.69
54924;BME280;40825;52.270;20.984;2023-07-20T08:00:18;99965.05;;;17.01;79.20
54924;BME280;40825;52.270;20.984;2023-07-20T08:02:45;99966.09;;;17.00;79.23
54924;BME280;40825;52.270;20.984;2023-07-20T08:05:14;99972.60;;;17.00;78.97
54924;BME280;40825;52.270;20.984;2023-07-20T08:07:39;99972.83;;;16.97;79.72
54924;BME280;40825;52.270;20.984;2023-07-20T08:10:05;99976.81;;;16.94;79.80
54924;BME280;40825;52.270;20.984;2023-07-20T08:12:31;99974.98;;;16.90;79.79
54924;BME280;40825;52.270;20.984;2023-07-20T08:14:57;99976.95;;;16.92;79.52
54924;BME280;40825;52.270;20.984;2023-07-20T08:17:22;99978.52;;;16.93;79.43
54924;BME280;40825;52.270;20.984;2023-07-20T08:19:48;99986.62;;;16.93;80.20
54924;BME280;40825;52.270;20.984;2023-07-20T08:22:14;99984.20;;;16.95;79.91
54924;BME280;40825;52.270;20.984;2023-07-20T08:24:40;99985.64;;;16.96;79.80
54924;BME280;40825;52.270;20.984;2023-07-20T08:27:13;99988.42;;;16.95;79.92
54924;BME280;40825;52.270;20.984;2023-07-20T08:29:39;99988.46;;;16.94;80.07
54924;BME280;40825;52.270;20.984;2023-07-20T08:32:06;99990.00;;;16.92;80.50
54924;BME280;40825;52.270;20.984;2023-07-20T08:34:31;99991.08;;;16.92;80.51
54924;BME280;40825;52.270;20.984;2023-07-20T08:36:58;99992.81;;;16.93;79.97
54924;BME280;40825;52.270;20.984;2023-07-20T08:39:24;99991.10;;;16.90;80.26
54924;BME280;40825;52.270;20.984;2023-07-20T08:41:50;99986.66;;;16.86;79.68
54924;BME280;40825;52.270;20.984;2023-07-20T08:44:17;99993.13;;;16.83;80.23
54924;BME280;40825;52.270;20.984;2023-07-20T08:46:44;99994.27;;;16.80;80.31
54924;BME280;40825;52.270;20.984;2023-07-20T08:49:11;99995.88;;;16.76;80.82
54924;BME280;40825;52.270;20.984;2023-07-20T08:51:37;100003.16;;;16.73;80.77
54924;BME280;40825;52.270;20.984;2023-07-20T08:54:04;100003.62;;;16.69;80.99
54924;BME280;40825;52.270;20.984;2023-07-20T08:56:31;100002.64;;;16.69;81.00
54924;BME280;40825;52.270;20.984;2023-07-20T08:58:59;100012.20;;;16.64;81.33
54924;BME280;40825;52.270;20.984;2023-07-20T09:01:28;100010.82;;;16.65;81.40
54924;BME280;40825;52.270;20.984;2023-07-20T09:03:54;100011.96;;;16.69;81.91
54924;BME280;40825;52.270;20.984;2023-07-20T09:06:21;100010.98;;;16.74;81.06
54924;BME280;40825;52.270;20.984;2023-07-20T09:08:46;100014.13;;;16.76;81.11
54924;BME280;40825;52.270;20.984;2023-07-20T09:11:12;100014.55;;;16.81;81.72
54924;BME280;40825;52.270;20.984;2023-07-20T09:13:41;100015.60;;;16.88;81.92
54924;BME280;40825;52.270;20.984;2023-07-20T09:16:06;100018.50;;;16.94;81.52
54924;BME280;40825;52.270;20.984;2023-07-20T09:18:32;100025.00;;;17.03;81.45
54924;BME280;40825;52.270;20.984;2023-07-20T09:21:06;100025.08;;;17.14;81.40
54924;BME280;40825;52.270;20.984;2023-07-20T09:23:36;100024.33;;;17.18;81.21
54924;BME280;40825;52.270;20.984;2023-07-20T09:26:14;100019.64;;;17.15;81.28
54924;BME280;40825;52.270;20.984;2023-07-20T09:28:51;100018.14;;;17.16;81.12
54924;BME280;40825;52.270;20.984;2023-07-20T09:31:19;100017.77;;;17.20;81.36
54924;BME280;40825;52.270;20.984;2023-07-20T09:33:46;100017.69;;;17.28;83.00
54924;BME280;40825;52.270;20.984;2023-07-20T09:36:12;100016.63;;;17.39;82.92
54924;BME280;40825;52.270;20.984;2023-07-20T09:38:41;100018.77;;;17.56;81.29
54924;BME280;40825;52.270;20.984;2023-07-20T09:41:07;100021.52;;;17.64;81.92
54924;BME280;40825;52.270;20.984;2023-07-20T09:43:34;100025.69;;;17.71;81.85
54924;BME280;40825;52.270;20.984;2023-07-20T09:46:00;100023.74;;;17.75;81.30
54924;BME280;40825;52.270;20.984;2023-07-20T09:48:26;100022.02;;;17.76;81.73
54924;BME280;40825;52.270;20.984;2023-07-20T09:50:52;100017.65;;;17.80;81.30
54924;BME280;40825;52.270;20.984;2023-07-20T09:53:19;100018.58;;;17.88;81.61
54924;BME280;40825;52.270;20.984;2023-07-20T09:55:49;100023.55;;;17.89;81.20
54924;BME280;40825;52.270;20.984;2023-07-20T09:58:16;100021.01;;;17.81;81.21
54924;BME280;40825;52.270;20.984;2023-07-20T10:00:42;100022.48;;;17.85;81.94
54924;BME280;40825;52.270;20.984;2023-07-20T10:03:20;100024.82;;;17.91;81.47
54924;BME280;40825;52.270;20.984;2023-07-20T10:06:01;100024.54;;;17.98;80.78
54924;BME280;40825;52.270;20.984;2023-07-20T10:08:30;100029.51;;;18.09;80.82
54924;BME280;40825;52.270;20.984;2023-07-20T10:10:58;100026.20;;;18.17;81.03
54924;BME280;40825;52.270;20.984;2023-07-20T10:13:27;100024.19;;;18.24;80.61
54924;BME280;40825;52.270;20.984;2023-07-20T10:16:05;100018.41;;;18.30;80.35
54924;BME280;40825;52.270;20.984;2023-07-20T10:18:54;100020.33;;;18.31;79.68
54924;BME280;40825;52.270;20.984;2023-07-20T10:21:25;100019.36;;;18.27;79.42
54924;BME280;40825;52.270;20.984;2023-07-20T10:23:50;100017.33;;;18.30;79.94
54924;BME280;40825;52.270;20.984;2023-07-20T10:26:16;100018.37;;;18.34;79.78
54924;BME280;40825;52.270;20.984;2023-07-20T10:28:42;100017.02;;;18.35;79.40
54924;BME280;40825;52.270;20.984;2023-07-20T10:31:12;100017.69;;;18.36;79.33
54924;BME280;40825;52.270;20.984;2023-07-20T10:33:39;100018.61;;;18.33;78.37
54924;BME280;40825;52.270;20.984;2023-07-20T10:36:06;100015.89;;;18.22;76.40
54924;BME280;40825;52.270;20.984;2023-07-20T10:38:43;100019.02;;;18.12;76.92
54924;BME280;40825;52.270;20.984;2023-07-20T10:41:50;100018.73;;;18.14;77.26
54924;BME280;40825;52.270;20.984;2023-07-20T10:44:19;100019.91;;;18.25;77.28
54924;BME280;40825;52.270;20.984;2023-07-20T10:46:46;100017.16;;;18.38;77.80
54924;BME280;40825;52.270;20.984;2023-07-20T10:49:15;100013.08;;;18.61;77.87
54924;BME280;40825;52.270;20.984;2023-07-20T10:51:43;100014.45;;;18.84;77.86
54924;BME280;40825;52.270;20.984;2023-07-20T10:56:43;100014.00;;;19.29;76.59
54924;BME280;40825;52.270;20.984;2023-07-20T11:01:56;100006.79;;;19.36;75.35
54924;BME280;40825;52.270;20.984;2023-07-20T11:04:42;100005.20;;;19.50;75.34
54924;BME280;40825;52.270;20.984;2023-07-20T11:07:08;100003.77;;;19.70;75.65
54924;BME280;40825;52.270;20.984;2023-07-20T11:09:38;100004.16;;;19.90;74.85
54924;BME280;40825;52.270;20.984;2023-07-20T11:12:11;100002.50;;;20.01;74.23
54924;BME280;40825;52.270;20.984;2023-07-20T11:17:13;100003.63;;;20.02;71.44
54924;BME280;40825;52.270;20.984;2023-07-20T11:19:39;100004.51;;;20.05;72.99
54924;BME280;40825;52.270;20.984;2023-07-20T11:22:06;99998.08;;;20.07;71.62
54924;BME280;40825;52.270;20.984;2023-07-20T11:24:41;99996.15;;;20.01;70.16
54924;BME280;40825;52.270;20.984;2023-07-20T11:27:07;99997.36;;;20.04;70.23
54924;BME280;40825;52.270;20.984;2023-07-20T11:29:34;99998.17;;;19.95;70.81
54924;BME280;40825;52.270;20.984;2023-07-20T11:32:01;99998.61;;;19.96;70.99
54924;BME280;40825;52.270;20.984;2023-07-20T11:34:30;99995.55;;;19.98;70.89
54924;BME280;40825;52.270;20.984;2023-07-20T11:36:56;99990.73;;;20.04;70.36
54924;BME280;40825;52.270;20.984;2023-07-20T11:39:22;99991.95;;;20.08;69.89
54924;BME280;40825;52.270;20.984;2023-07-20T11:41:51;99987.86;;;20.16;69.73
54924;BME280;40825;52.270;20.984;2023-07-20T11:44:18;99983.19;;;20.24;69.61
54924;BME280;40825;52.270;20.984;2023-07-20T11:46:44;99987.88;;;20.42;68.91
54924;BME280;40825;52.270;20.984;2023-07-20T11:49:13;99984.50;;;20.47;69.02
54924;BME280;40825;52.270;20.984;2023-07-20T11:51:40;99983.03;;;20.51;69.44
54924;BME280;40825;52.270;20.984;2023-07-20T11:54:08;99983.30;;;20.56;69.36
54924;BME280;40825;52.270;20.984;2023-07-20T11:56:34;99978.61;;;20.64;67.58
54924;BME280;40825;52.270;20.984;2023-07-20T11:59:00;99977.91;;;20.76;68.16
54924;BME280;40825;52.270;20.984;2023-07-20T12:01:28;99976.70;;;20.93;67.89
54924;BME280;40825;52.270;20.984;2023-07-20T12:03:56;99968.95;;;20.98;66.65
54924;BME280;40825;52.270;20.984;2023-07-20T12:06:26;99974.80;;;20.96;67.25
54924;BME280;40825;52.270;20.984;2023-07-20T12:08:55;99973.66;;;20.92;66.29
54924;BME280;40825;52.270;20.984;2023-07-20T12:11:32;99971.50;;;20.93;66.53
54924;BME280;40825;52.270;20.984;2023-07-20T12:13:58;99972.52;;;20.93;65.07
54924;BME280;40825;52.270;20.984;2023-07-20T12:16:27;99975.77;;;20.83;64.89
54924;BME280;40825;52.270;20.984;2023-07-20T12:19:01;99974.85;;;20.86;65.08
54924;BME280;40825;52.270;20.984;2023-07-20T12:21:28;99978.16;;;20.98;64.67
54924;BME280;40825;52.270;20.984;2023-07-20T12:23:56;99977.90;;;21.06;64.64
54924;BME280;40825;52.270;20.984;2023-07-20T12:26:22;99970.56;;;21.13;64.72
54924;BME280;40825;52.270;20.984;2023-07-20T12:28:49;99968.22;;;21.25;64.30
54924;BME280;40825;52.270;20.984;2023-07-20T12:31:15;99969.83;;;21.35;63.79
54924;BME280;40825;52.270;20.984;2023-07-20T12:33:41;99974.83;;;21.39;63.17
54924;BME280;40825;52.270;20.984;2023-07-20T12:36:08;99972.83;;;21.31;62.61
54924;BME280;40825;52.270;20.984;2023-07-20T12:38:35;99974.35;;;21.34;62.66
54924;BME280;40825;52.270;20.984;2023-07-20T12:41:01;99974.56;;;21.37;63.27
54924;BME280;40825;52.270;20.984;2023-07-20T12:43:27;99970.27;;;21.38;62.92
54924;BME280;40825;52.270;20.984;2023-07-20T12:45:53;99963.27;;;21.30;62.06
54924;BME280;40825;52.270;20.984;2023-07-20T12:48:19;99964.58;;;21.25;62.52
54924;BME280;40825;52.270;20.984;2023-07-20T12:50:44;99958.78;;;21.18;62.32
54924;BME280;40825;52.270;20.984;2023-07-20T12:53:10;99948.69;;;21.07;61.57
54924;BME280;40825;52.270;20.984;2023-07-20T12:55:36;99948.05;;;20.98;62.27
54924;BME280;40825;52.270;20.984;2023-07-20T12:58:02;99946.96;;;20.97;62.98
54924;BME280;40825;52.270;20.984;2023-07-20T13:00:28;99947.30;;;20.91;63.00
54924;BME280;40825;52.270;20.984;2023-07-20T13:02:54;99939.59;;;20.85;63.05
54924;BME280;40825;52.270;20.984;2023-07-20T13:05:19;99928.84;;;20.84;64.01
54924;BME280;40825;52.270;20.984;2023-07-20T13:07:45;99924.55;;;20.87;63.85
54924;BME280;40825;52.270;20.984;2023-07-20T13:10:11;99919.66;;;20.94;64.21
54924;BME280;40825;52.270;20.984;2023-07-20T13:12:38;99913.16;;;20.96;63.74
54924;BME280;40825;52.270;20.984;2023-07-20T13:15:05;99912.12;;;21.02;63.85
54924;BME280;40825;52.270;20.984;2023-07-20T13:17:35;99914.00;;;21.13;63.72
54924;BME280;40825;52.270;20.984;2023-07-20T13:20:02;99912.58;;;21.18;63.13
54924;BME280;40825;52.270;20.984;2023-07-20T13:22:32;99906.56;;;21.12;62.24
54924;BME280;40825;52.270;20.984;2023-07-20T13:24:58;99904.36;;;21.06;62.74
54924;BME280;40825;52.270;20.984;2023-07-20T13:27:24;99906.80;;;21.02;63.10
54924;BME280;40825;52.270;20.984;2023-07-20T13:29:52;99910.99;;;20.97;62.62
54924;BME280;40825;52.270;20.984;2023-07-20T13:32:18;99907.95;;;20.98;62.93
54924;BME280;40825;52.270;20.984;2023-07-20T13:34:44;99906.58;;;21.04;63.24
54924;BME280;40825;52.270;20.984;2023-07-20T13:37:10;99899.35;;;21.15;62.92
54924;BME280;40825;52.270;20.984;2023-07-20T13:39:39;99901.73;;;21.22;62.13
54924;BME280;40825;52.270;20.984;2023-07-20T13:42:07;99909.48;;;21.24;62.37
54924;BME280;40825;52.270;20.984;2023-07-20T13:44:34;99914.30;;;21.26;62.67